FDX5 KTUL-KPHX
Flight info
| Callsign | FDX5 |
|---|---|
| Flight time | 2h 19m |
| Altitude | 36000 |
| Route | YARNS IRW PNH ABQ ZUN EAGUL6 |
| Aircraft | MD11/H-SDE1E2E3FGHIJ2J3J4J5M1RWXY/LB1D1 |
Departure
| Time | 2026-05-07 01:35 |
|---|---|
| Airport | Tulsa International Airport (KTUL) |
Arrival
| Time | 2026-05-07 03:54 |
|---|---|
| Airport | Phoenix Sky Harbor International Airport (KPHX) |
| Time | Latitude | Longitude | Altitude | Speed | Heading |
|---|---|---|---|---|---|
| 2026-05-07 01:17 | 36.18743 | -95.88021 | 670 ft | 0 kts | 94° |
| 2026-05-07 01:26 | 36.18778 | -95.88635 | 669 ft | 0 kts | 225° |
| 2026-05-07 01:29 | 36.18785 | -95.88626 | 669 ft | 4 kts | 225° |
| 2026-05-07 01:29 | 36.18804 | -95.88603 | 668 ft | 4 kts | 226° |
| 2026-05-07 01:29 | 36.18823 | -95.88579 | 665 ft | 4 kts | 226° |
| 2026-05-07 01:29 | 36.18840 | -95.88557 | 666 ft | 4 kts | 221° |
| 2026-05-07 01:30 | 36.18853 | -95.88544 | 665 ft | 4 kts | 169° |
| 2026-05-07 01:30 | 36.18864 | -95.88553 | 665 ft | 4 kts | 126° |
| 2026-05-07 01:30 | 36.18879 | -95.88577 | 664 ft | 2 kts | 138° |
| 2026-05-07 01:30 | 36.18880 | -95.88578 | 664 ft | 4 kts | 138° |
| 2026-05-07 01:33 | 36.18876 | -95.88574 | 664 ft | 2 kts | 142° |
| 2026-05-07 01:33 | 36.18849 | -95.88561 | 664 ft | 6 kts | 165° |
| 2026-05-07 01:33 | 36.18798 | -95.88557 | 665 ft | 9 kts | 180° |
| 2026-05-07 01:33 | 36.18729 | -95.88557 | 670 ft | 11 kts | 176° |
| 2026-05-07 01:34 | 36.18680 | -95.88499 | 669 ft | 8 kts | 107° |
| 2026-05-07 01:34 | 36.18674 | -95.88420 | 673 ft | 11 kts | 90° |
| 2026-05-07 01:34 | 36.18685 | -95.88329 | 669 ft | 3 kts | 53° |
| 2026-05-07 01:34 | 36.18703 | -95.88322 | 671 ft | 0 kts | 11° |
| 2026-05-07 01:35 | 36.18733 | -95.88316 | 670 ft | 27 kts | 8° |
| 2026-05-07 01:35 | 36.19204 | -95.88283 | 660 ft | 108 kts | 2° |
| 2026-05-07 01:35 | 36.20168 | -95.88223 | 725 ft | 161 kts | 4° |
| 2026-05-07 01:35 | 36.21310 | -95.88120 | 1492 ft | 162 kts | 4° |
| 2026-05-07 01:36 | 36.22389 | -95.88082 | 2593 ft | 154 kts | 0° |
| 2026-05-07 01:36 | 36.23445 | -95.88578 | 3223 ft | 172 kts | 321° |
| 2026-05-07 01:36 | 36.24036 | -95.89915 | 3897 ft | 192 kts | 284° |
| 2026-05-07 01:36 | 36.23900 | -95.91746 | 4134 ft | 241 kts | 251° |
| 2026-05-07 01:37 | 36.23093 | -95.93753 | 4570 ft | 272 kts | 242° |
| 2026-05-07 01:37 | 36.22152 | -95.95803 | 5650 ft | 274 kts | 242° |
| 2026-05-07 01:37 | 36.21210 | -95.97860 | 6776 ft | 272 kts | 243° |
| 2026-05-07 01:37 | 36.20292 | -95.99866 | 7958 ft | 266 kts | 242° |
| 2026-05-07 01:38 | 36.19385 | -96.01844 | 9077 ft | 262 kts | 243° |
| 2026-05-07 01:38 | 36.18492 | -96.03797 | 10170 ft | 260 kts | 243° |
| 2026-05-07 01:38 | 36.17625 | -96.05877 | 10414 ft | 286 kts | 247° |
| 2026-05-07 01:38 | 36.16837 | -96.08256 | 10564 ft | 311 kts | 251° |
| 2026-05-07 01:39 | 36.16156 | -96.10857 | 10826 ft | 327 kts | 255° |
| 2026-05-07 01:39 | 36.15575 | -96.13586 | 11561 ft | 329 kts | 257° |
| 2026-05-07 01:39 | 36.15069 | -96.16356 | 12316 ft | 331 kts | 258° |
| 2026-05-07 01:39 | 36.14615 | -96.19154 | 13046 ft | 333 kts | 259° |
| 2026-05-07 01:40 | 36.14186 | -96.22002 | 13783 ft | 336 kts | 259° |
| 2026-05-07 01:40 | 36.13778 | -96.24852 | 14438 ft | 337 kts | 260° |
| 2026-05-07 01:40 | 36.13380 | -96.27710 | 15125 ft | 337 kts | 260° |
| 2026-05-07 01:40 | 36.12987 | -96.30575 | 15819 ft | 338 kts | 260° |
| 2026-05-07 01:41 | 36.12598 | -96.33428 | 16518 ft | 339 kts | 260° |
| 2026-05-07 01:41 | 36.12207 | -96.36304 | 17207 ft | 340 kts | 259° |
| 2026-05-07 01:41 | 36.11815 | -96.39194 | 17889 ft | 340 kts | 259° |
| 2026-05-07 01:41 | 36.11421 | -96.42088 | 18542 ft | 341 kts | 259° |
| 2026-05-07 01:42 | 36.11031 | -96.44955 | 19135 ft | 341 kts | 259° |
| 2026-05-07 01:42 | 36.10637 | -96.47841 | 19711 ft | 343 kts | 259° |
| 2026-05-07 01:42 | 36.10237 | -96.50767 | 20187 ft | 345 kts | 259° |
| 2026-05-07 01:42 | 36.09837 | -96.53696 | 20792 ft | 345 kts | 259° |
| 2026-05-07 01:43 | 36.09437 | -96.56611 | 21433 ft | 344 kts | 258° |
| 2026-05-07 01:43 | 36.09037 | -96.59523 | 22077 ft | 343 kts | 258° |
| 2026-05-07 01:43 | 36.08637 | -96.62432 | 22709 ft | 342 kts | 258° |
| 2026-05-07 01:43 | 36.08191 | -96.65316 | 23345 ft | 341 kts | 254° |
| 2026-05-07 01:44 | 36.07395 | -96.68062 | 23953 ft | 341 kts | 244° |
| 2026-05-07 01:44 | 36.06067 | -96.70503 | 24389 ft | 346 kts | 234° |
| 2026-05-07 01:44 | 36.04446 | -96.72726 | 24831 ft | 349 kts | 231° |
| 2026-05-07 01:44 | 36.02743 | -96.74885 | 25293 ft | 351 kts | 231° |
| 2026-05-07 01:45 | 36.01027 | -96.77040 | 25778 ft | 353 kts | 231° |
| 2026-05-07 01:45 | 35.99313 | -96.79214 | 26246 ft | 354 kts | 231° |
| 2026-05-07 01:45 | 35.97624 | -96.81383 | 26697 ft | 355 kts | 231° |
| 2026-05-07 01:45 | 35.95915 | -96.83594 | 27166 ft | 357 kts | 232° |
| 2026-05-07 01:46 | 35.94197 | -96.85829 | 27609 ft | 359 kts | 232° |
| 2026-05-07 01:46 | 35.92473 | -96.88079 | 28055 ft | 361 kts | 232° |
| 2026-05-07 01:46 | 35.90738 | -96.90345 | 28545 ft | 363 kts | 232° |
| 2026-05-07 01:46 | 35.89001 | -96.92614 | 29029 ft | 365 kts | 232° |
| 2026-05-07 01:47 | 35.87249 | -96.94902 | 29499 ft | 367 kts | 232° |
| 2026-05-07 01:47 | 35.85515 | -96.97166 | 29841 ft | 369 kts | 232° |
| 2026-05-07 01:47 | 35.83748 | -96.99470 | 30089 ft | 370 kts | 232° |
| 2026-05-07 01:47 | 35.81974 | -97.01782 | 30235 ft | 371 kts | 232° |
| 2026-05-07 01:48 | 35.80198 | -97.04094 | 30348 ft | 371 kts | 232° |
| 2026-05-07 01:48 | 35.78424 | -97.06403 | 30465 ft | 371 kts | 232° |
| 2026-05-07 01:48 | 35.76652 | -97.08706 | 30577 ft | 371 kts | 232° |
| 2026-05-07 01:48 | 35.74879 | -97.11010 | 30695 ft | 370 kts | 232° |
| 2026-05-07 01:49 | 35.73106 | -97.13313 | 30809 ft | 369 kts | 232° |
| 2026-05-07 01:49 | 35.71340 | -97.15605 | 30922 ft | 369 kts | 232° |
| 2026-05-07 01:49 | 35.69573 | -97.17897 | 31051 ft | 368 kts | 232° |
| 2026-05-07 01:49 | 35.67813 | -97.20179 | 31158 ft | 367 kts | 232° |
| 2026-05-07 01:50 | 35.66052 | -97.22461 | 31281 ft | 367 kts | 232° |
| 2026-05-07 01:50 | 35.64296 | -97.24734 | 31405 ft | 366 kts | 232° |
| 2026-05-07 01:50 | 35.62568 | -97.26968 | 31504 ft | 365 kts | 232° |
| 2026-05-07 01:50 | 35.60820 | -97.29229 | 31630 ft | 364 kts | 232° |
| 2026-05-07 01:51 | 35.59077 | -97.31481 | 31752 ft | 364 kts | 232° |
| 2026-05-07 01:51 | 35.57337 | -97.33728 | 31879 ft | 363 kts | 232° |
| 2026-05-07 01:51 | 35.55601 | -97.35968 | 32001 ft | 362 kts | 232° |
| 2026-05-07 01:51 | 35.53862 | -97.38210 | 32117 ft | 361 kts | 232° |
| 2026-05-07 01:52 | 35.52132 | -97.40439 | 32184 ft | 361 kts | 231° |
| 2026-05-07 01:52 | 35.50395 | -97.42677 | 32311 ft | 362 kts | 231° |
| 2026-05-07 01:52 | 35.48659 | -97.44904 | 32442 ft | 361 kts | 231° |
| 2026-05-07 01:52 | 35.46912 | -97.47132 | 32554 ft | 361 kts | 231° |
| 2026-05-07 01:53 | 35.45174 | -97.49350 | 32688 ft | 360 kts | 231° |
| 2026-05-07 01:53 | 35.43441 | -97.51565 | 32814 ft | 359 kts | 231° |
| 2026-05-07 01:53 | 35.41717 | -97.53790 | 32941 ft | 358 kts | 232° |
| 2026-05-07 01:53 | 35.40099 | -97.56091 | 33074 ft | 355 kts | 236° |
| 2026-05-07 01:54 | 35.38686 | -97.58551 | 33200 ft | 352 kts | 240° |
| 2026-05-07 01:54 | 35.37524 | -97.61175 | 33332 ft | 350 kts | 245° |
| 2026-05-07 01:54 | 35.36637 | -97.63905 | 33462 ft | 349 kts | 250° |
| 2026-05-07 01:54 | 35.36005 | -97.66775 | 33593 ft | 350 kts | 255° |
| 2026-05-07 01:55 | 35.35640 | -97.69725 | 33721 ft | 352 kts | 259° |
| 2026-05-07 01:55 | 35.35505 | -97.72722 | 33859 ft | 353 kts | 262° |
| 2026-05-07 01:55 | 35.35467 | -97.75737 | 33983 ft | 353 kts | 263° |
| 2026-05-07 01:55 | 35.35452 | -97.78752 | 34119 ft | 353 kts | 263° |
| 2026-05-07 01:56 | 35.35435 | -97.81736 | 34233 ft | 352 kts | 263° |
| 2026-05-07 01:56 | 35.35409 | -97.84734 | 34345 ft | 351 kts | 263° |
| 2026-05-07 01:56 | 35.35376 | -97.87728 | 34459 ft | 351 kts | 262° |
| 2026-05-07 01:56 | 35.35337 | -97.90713 | 34581 ft | 350 kts | 262° |
| 2026-05-07 01:57 | 35.35295 | -97.93689 | 34687 ft | 349 kts | 262° |
| 2026-05-07 01:57 | 35.35251 | -97.96666 | 34821 ft | 349 kts | 262° |
| 2026-05-07 01:57 | 35.35205 | -97.99632 | 34948 ft | 348 kts | 262° |
| 2026-05-07 01:57 | 35.35159 | -98.02593 | 35069 ft | 347 kts | 262° |
| 2026-05-07 01:58 | 35.35111 | -98.05547 | 35189 ft | 346 kts | 262° |
| 2026-05-07 01:58 | 35.35063 | -98.08498 | 35304 ft | 346 kts | 262° |
| 2026-05-07 01:58 | 35.35015 | -98.11404 | 35418 ft | 345 kts | 262° |
| 2026-05-07 01:58 | 35.34967 | -98.14320 | 35748 ft | 340 kts | 262° |
| 2026-05-07 01:59 | 35.34919 | -98.17211 | 36006 ft | 338 kts | 262° |
| 2026-05-07 01:59 | 35.34821 | -98.22918 | 36083 ft | 330 kts | 262° |
| 2026-05-07 02:00 | 35.34722 | -98.28499 | 36083 ft | 327 kts | 262° |
| 2026-05-07 02:00 | 35.34617 | -98.34064 | 36079 ft | 326 kts | 262° |
| 2026-05-07 02:01 | 35.34510 | -98.39622 | 36075 ft | 327 kts | 262° |
| 2026-05-07 02:01 | 35.34401 | -98.45193 | 36087 ft | 327 kts | 262° |
| 2026-05-07 02:02 | 35.34291 | -98.50764 | 36088 ft | 327 kts | 262° |
| 2026-05-07 02:02 | 35.34178 | -98.56301 | 36093 ft | 327 kts | 262° |
| 2026-05-07 02:03 | 35.34062 | -98.61864 | 36097 ft | 327 kts | 262° |
| 2026-05-07 02:03 | 35.33944 | -98.67436 | 36096 ft | 327 kts | 262° |
| 2026-05-07 02:04 | 35.33822 | -98.73007 | 36099 ft | 328 kts | 262° |
| 2026-05-07 02:04 | 35.33673 | -98.78600 | 36092 ft | 329 kts | 262° |
| 2026-05-07 02:05 | 35.33531 | -98.84202 | 36068 ft | 329 kts | 262° |
| 2026-05-07 02:05 | 35.33396 | -98.89804 | 36067 ft | 329 kts | 262° |
| 2026-05-07 02:06 | 35.33262 | -98.95410 | 36093 ft | 329 kts | 262° |
| 2026-05-07 02:06 | 35.33127 | -99.01013 | 36100 ft | 329 kts | 262° |
| 2026-05-07 02:07 | 35.32995 | -99.06524 | 36106 ft | 324 kts | 262° |
| 2026-05-07 02:07 | 35.32848 | -99.12142 | 36113 ft | 337 kts | 262° |
| 2026-05-07 02:07 | 35.32771 | -99.15039 | 36112 ft | 343 kts | 262° |
| 2026-05-07 02:08 | 35.32619 | -99.20927 | 36107 ft | 348 kts | 262° |
| 2026-05-07 02:08 | 35.32466 | -99.26864 | 36112 ft | 349 kts | 262° |
| 2026-05-07 02:09 | 35.32309 | -99.32822 | 36106 ft | 350 kts | 262° |
| 2026-05-07 02:09 | 35.32148 | -99.38776 | 36091 ft | 350 kts | 262° |
| 2026-05-07 02:10 | 35.31984 | -99.44732 | 36090 ft | 350 kts | 262° |
| 2026-05-07 02:10 | 35.31816 | -99.50668 | 36090 ft | 352 kts | 262° |
| 2026-05-07 02:11 | 35.31645 | -99.56648 | 36090 ft | 352 kts | 262° |
| 2026-05-07 02:11 | 35.31469 | -99.62654 | 36086 ft | 353 kts | 262° |
| 2026-05-07 02:12 | 35.31292 | -99.68650 | 36091 ft | 353 kts | 262° |
| 2026-05-07 02:12 | 35.31110 | -99.74629 | 36094 ft | 353 kts | 262° |
| 2026-05-07 02:13 | 35.30902 | -99.80643 | 36093 ft | 353 kts | 261° |
| 2026-05-07 02:13 | 35.30699 | -99.86656 | 36093 ft | 354 kts | 262° |
| 2026-05-07 02:14 | 35.30503 | -99.92662 | 36101 ft | 355 kts | 262° |
| 2026-05-07 02:14 | 35.30307 | -99.98719 | 36103 ft | 356 kts | 262° |
| 2026-05-07 02:15 | 35.30109 | -100.04783 | 36105 ft | 356 kts | 262° |
| 2026-05-07 02:15 | 35.29909 | -100.10839 | 36102 ft | 356 kts | 262° |
| 2026-05-07 02:16 | 35.29705 | -100.16891 | 36107 ft | 356 kts | 262° |
| 2026-05-07 02:16 | 35.29499 | -100.22924 | 36111 ft | 358 kts | 262° |
| 2026-05-07 02:17 | 35.29287 | -100.29028 | 36110 ft | 359 kts | 262° |
| 2026-05-07 02:17 | 35.29073 | -100.35147 | 36109 ft | 360 kts | 262° |
| 2026-05-07 02:18 | 35.28855 | -100.41265 | 36112 ft | 359 kts | 262° |
| 2026-05-07 02:18 | 35.28634 | -100.47378 | 36113 ft | 360 kts | 262° |
| 2026-05-07 02:19 | 35.28410 | -100.53491 | 36105 ft | 359 kts | 262° |
| 2026-05-07 02:19 | 35.28183 | -100.59608 | 36101 ft | 360 kts | 262° |
| 2026-05-07 02:20 | 35.27991 | -100.64700 | 36110 ft | 361 kts | 262° |
| 2026-05-07 02:20 | 35.27757 | -100.70853 | 36111 ft | 361 kts | 262° |
| 2026-05-07 02:21 | 35.27517 | -100.77007 | 36124 ft | 362 kts | 262° |
| 2026-05-07 02:21 | 35.27252 | -100.83145 | 36115 ft | 361 kts | 262° |
| 2026-05-07 02:22 | 35.26994 | -100.89272 | 36116 ft | 361 kts | 262° |
| 2026-05-07 02:22 | 35.26743 | -100.95409 | 36116 ft | 361 kts | 262° |
| 2026-05-07 02:23 | 35.26493 | -101.01538 | 36115 ft | 361 kts | 262° |
| 2026-05-07 02:23 | 35.26240 | -101.07675 | 36114 ft | 361 kts | 262° |
| 2026-05-07 02:24 | 35.25984 | -101.13815 | 36113 ft | 361 kts | 262° |
| 2026-05-07 02:24 | 35.25726 | -101.19948 | 36116 ft | 361 kts | 262° |
| 2026-05-07 02:25 | 35.25464 | -101.26079 | 36112 ft | 361 kts | 262° |
| 2026-05-07 02:25 | 35.25200 | -101.32176 | 36122 ft | 361 kts | 262° |
| 2026-05-07 02:26 | 35.24932 | -101.38306 | 36130 ft | 362 kts | 262° |
| 2026-05-07 02:26 | 35.24661 | -101.44449 | 36137 ft | 362 kts | 262° |
| 2026-05-07 02:27 | 35.24386 | -101.50602 | 36142 ft | 362 kts | 262° |
| 2026-05-07 02:27 | 35.24108 | -101.56755 | 36151 ft | 362 kts | 262° |
| 2026-05-07 02:28 | 35.23827 | -101.62900 | 36156 ft | 362 kts | 262° |
| 2026-05-07 02:28 | 35.23547 | -101.69058 | 36170 ft | 362 kts | 263° |
| 2026-05-07 02:29 | 35.23383 | -101.75178 | 36146 ft | 348 kts | 264° |
| 2026-05-07 02:29 | 35.23337 | -101.78065 | 36152 ft | 333 kts | 264° |
| 2026-05-07 02:29 | 35.23291 | -101.80888 | 36157 ft | 331 kts | 264° |
| 2026-05-07 02:30 | 35.23195 | -101.86479 | 36149 ft | 330 kts | 264° |
| 2026-05-07 02:30 | 35.23095 | -101.92092 | 36140 ft | 330 kts | 264° |
| 2026-05-07 02:31 | 35.22994 | -101.97702 | 36128 ft | 330 kts | 264° |
| 2026-05-07 02:31 | 35.22892 | -102.03311 | 36122 ft | 330 kts | 264° |
| 2026-05-07 02:32 | 35.22787 | -102.08883 | 36124 ft | 330 kts | 264° |
| 2026-05-07 02:32 | 35.22680 | -102.14486 | 36102 ft | 329 kts | 264° |
| 2026-05-07 02:33 | 35.22570 | -102.20090 | 36114 ft | 329 kts | 264° |
| 2026-05-07 02:33 | 35.22457 | -102.25696 | 36112 ft | 329 kts | 264° |
| 2026-05-07 02:34 | 35.22342 | -102.31295 | 36115 ft | 329 kts | 264° |
| 2026-05-07 02:34 | 35.22224 | -102.36900 | 36121 ft | 330 kts | 264° |
| 2026-05-07 02:35 | 35.22103 | -102.42511 | 36140 ft | 330 kts | 264° |
| 2026-05-07 02:35 | 35.21981 | -102.48098 | 36131 ft | 331 kts | 264° |
| 2026-05-07 02:36 | 35.21855 | -102.53728 | 36133 ft | 331 kts | 264° |
| 2026-05-07 02:36 | 35.21726 | -102.59359 | 36132 ft | 331 kts | 264° |
| 2026-05-07 02:37 | 35.21594 | -102.65001 | 36130 ft | 331 kts | 264° |
| 2026-05-07 02:37 | 35.21459 | -102.70636 | 36126 ft | 331 kts | 264° |
| 2026-05-07 02:38 | 35.21300 | -102.76234 | 36126 ft | 331 kts | 264° |
| 2026-05-07 02:38 | 35.21144 | -102.81876 | 36136 ft | 333 kts | 264° |
| 2026-05-07 02:39 | 35.20995 | -102.87536 | 36136 ft | 333 kts | 264° |
| 2026-05-07 02:39 | 35.20848 | -102.93196 | 36125 ft | 333 kts | 264° |
| 2026-05-07 02:40 | 35.20693 | -102.98966 | 36129 ft | 346 kts | 264° |
| 2026-05-07 02:40 | 35.20529 | -103.04959 | 36130 ft | 359 kts | 264° |
| 2026-05-07 02:41 | 35.20361 | -103.11114 | 36125 ft | 365 kts | 264° |
| 2026-05-07 02:41 | 35.20191 | -103.17304 | 36125 ft | 368 kts | 264° |
| 2026-05-07 02:42 | 35.20015 | -103.23584 | 36131 ft | 369 kts | 264° |
| 2026-05-07 02:42 | 35.19836 | -103.29858 | 36139 ft | 369 kts | 264° |
| 2026-05-07 02:43 | 35.19653 | -103.36137 | 36148 ft | 369 kts | 264° |
| 2026-05-07 02:43 | 35.19467 | -103.42381 | 36158 ft | 369 kts | 264° |
| 2026-05-07 02:44 | 35.19278 | -103.48665 | 36164 ft | 369 kts | 264° |
| 2026-05-07 02:44 | 35.19083 | -103.54972 | 36158 ft | 373 kts | 264° |
| 2026-05-07 02:45 | 35.18884 | -103.61332 | 36169 ft | 375 kts | 264° |
| 2026-05-07 02:45 | 35.18681 | -103.67704 | 36162 ft | 375 kts | 264° |
| 2026-05-07 02:46 | 35.18468 | -103.74080 | 36160 ft | 375 kts | 264° |
| 2026-05-07 02:46 | 35.18235 | -103.80418 | 36164 ft | 375 kts | 264° |
| 2026-05-07 02:47 | 35.18009 | -103.86800 | 36136 ft | 377 kts | 264° |
| 2026-05-07 02:47 | 35.17786 | -103.93243 | 36157 ft | 382 kts | 264° |
| 2026-05-07 02:48 | 35.17561 | -103.99746 | 36153 ft | 383 kts | 264° |
| 2026-05-07 02:48 | 35.17334 | -104.06256 | 36150 ft | 384 kts | 264° |
| 2026-05-07 02:49 | 35.17101 | -104.12772 | 36150 ft | 383 kts | 264° |
| 2026-05-07 02:49 | 35.16867 | -104.19283 | 36157 ft | 384 kts | 264° |
| 2026-05-07 02:50 | 35.16627 | -104.25824 | 36158 ft | 387 kts | 264° |
| 2026-05-07 02:50 | 35.16383 | -104.32386 | 36158 ft | 390 kts | 264° |
| 2026-05-07 02:51 | 35.16133 | -104.39020 | 36161 ft | 391 kts | 264° |
| 2026-05-07 02:51 | 35.15880 | -104.45652 | 36161 ft | 391 kts | 264° |
| 2026-05-07 02:52 | 35.15623 | -104.52277 | 36171 ft | 391 kts | 264° |
| 2026-05-07 02:52 | 35.15362 | -104.58919 | 36169 ft | 391 kts | 264° |
| 2026-05-07 02:53 | 35.15098 | -104.65515 | 36168 ft | 391 kts | 264° |
| 2026-05-07 02:53 | 35.14830 | -104.72146 | 36168 ft | 391 kts | 264° |
| 2026-05-07 02:54 | 35.14538 | -104.78776 | 36171 ft | 391 kts | 264° |
| 2026-05-07 02:54 | 35.14242 | -104.85405 | 36170 ft | 391 kts | 264° |
| 2026-05-07 02:55 | 35.13956 | -104.92032 | 36172 ft | 391 kts | 264° |
| 2026-05-07 02:55 | 35.13670 | -104.98690 | 36162 ft | 393 kts | 264° |
| 2026-05-07 02:56 | 35.13384 | -105.05321 | 36165 ft | 394 kts | 264° |
| 2026-05-07 02:56 | 35.13091 | -105.12003 | 36167 ft | 394 kts | 264° |
| 2026-05-07 02:57 | 35.12795 | -105.18694 | 36167 ft | 394 kts | 264° |
| 2026-05-07 02:57 | 35.12495 | -105.25379 | 36161 ft | 394 kts | 264° |
| 2026-05-07 02:58 | 35.12190 | -105.32085 | 36165 ft | 396 kts | 264° |
| 2026-05-07 02:58 | 35.11880 | -105.38829 | 36149 ft | 398 kts | 264° |
| 2026-05-07 02:59 | 35.11565 | -105.45586 | 36152 ft | 398 kts | 264° |
| 2026-05-07 02:59 | 35.11249 | -105.52290 | 36124 ft | 398 kts | 264° |
| 2026-05-07 03:00 | 35.10927 | -105.59055 | 36128 ft | 398 kts | 264° |
| 2026-05-07 03:00 | 35.10602 | -105.65801 | 36102 ft | 399 kts | 264° |
| 2026-05-07 03:01 | 35.10271 | -105.72573 | 36093 ft | 400 kts | 264° |
| 2026-05-07 03:01 | 35.09920 | -105.79359 | 36060 ft | 400 kts | 264° |
| 2026-05-07 03:02 | 35.09559 | -105.86141 | 36062 ft | 400 kts | 264° |
| 2026-05-07 03:02 | 35.09208 | -105.92928 | 36042 ft | 400 kts | 264° |
| 2026-05-07 03:03 | 35.08862 | -105.99674 | 36019 ft | 400 kts | 264° |
| 2026-05-07 03:03 | 35.08509 | -106.06508 | 36043 ft | 405 kts | 264° |
| 2026-05-07 03:04 | 35.08149 | -106.13402 | 36035 ft | 407 kts | 264° |
| 2026-05-07 03:04 | 35.07785 | -106.20297 | 36050 ft | 407 kts | 264° |
| 2026-05-07 03:05 | 35.07418 | -106.27195 | 36060 ft | 407 kts | 264° |
| 2026-05-07 03:05 | 35.07046 | -106.34098 | 36083 ft | 407 kts | 264° |
| 2026-05-07 03:06 | 35.06667 | -106.41035 | 36109 ft | 411 kts | 264° |
| 2026-05-07 03:06 | 35.06285 | -106.47969 | 36138 ft | 413 kts | 264° |
| 2026-05-07 03:07 | 35.05896 | -106.54970 | 36147 ft | 413 kts | 264° |
| 2026-05-07 03:07 | 35.05503 | -106.61958 | 36147 ft | 413 kts | 264° |
| 2026-05-07 03:08 | 35.05106 | -106.68954 | 36146 ft | 413 kts | 264° |
| 2026-05-07 03:08 | 35.04773 | -106.74773 | 36150 ft | 414 kts | 264° |
| 2026-05-07 03:09 | 35.04367 | -106.81803 | 36147 ft | 415 kts | 265° |
| 2026-05-07 03:09 | 35.04138 | -106.88852 | 35988 ft | 416 kts | 266° |
| 2026-05-07 03:10 | 35.03974 | -106.95921 | 35991 ft | 417 kts | 266° |
| 2026-05-07 03:10 | 35.03807 | -107.03042 | 35988 ft | 424 kts | 267° |
| 2026-05-07 03:11 | 35.03629 | -107.10238 | 35992 ft | 430 kts | 267° |
| 2026-05-07 03:11 | 35.03441 | -107.17571 | 35993 ft | 433 kts | 267° |
| 2026-05-07 03:12 | 35.03247 | -107.24925 | 35997 ft | 433 kts | 267° |
| 2026-05-07 03:12 | 35.03048 | -107.32279 | 35997 ft | 434 kts | 267° |
| 2026-05-07 03:13 | 35.02845 | -107.39642 | 36003 ft | 434 kts | 267° |
| 2026-05-07 03:13 | 35.02638 | -107.46981 | 36004 ft | 437 kts | 267° |
| 2026-05-07 03:14 | 35.02424 | -107.54411 | 36002 ft | 438 kts | 267° |
| 2026-05-07 03:15 | 35.02094 | -107.65568 | 36002 ft | 439 kts | 267° |
| 2026-05-07 03:15 | 35.01868 | -107.73010 | 36004 ft | 439 kts | 267° |
| 2026-05-07 03:16 | 35.01637 | -107.80480 | 36000 ft | 442 kts | 267° |
| 2026-05-07 03:16 | 35.01378 | -107.87982 | 36009 ft | 443 kts | 266° |
| 2026-05-07 03:17 | 35.01117 | -107.95452 | 36005 ft | 443 kts | 267° |
| 2026-05-07 03:17 | 35.00864 | -108.02971 | 36002 ft | 443 kts | 267° |
| 2026-05-07 03:18 | 35.00613 | -108.10488 | 35998 ft | 444 kts | 267° |
| 2026-05-07 03:18 | 35.00357 | -108.18008 | 35998 ft | 443 kts | 267° |
| 2026-05-07 03:19 | 35.00097 | -108.25523 | 35999 ft | 444 kts | 266° |
| 2026-05-07 03:19 | 34.99831 | -108.33050 | 35997 ft | 444 kts | 266° |
| 2026-05-07 03:20 | 34.99563 | -108.40521 | 35998 ft | 444 kts | 266° |
| 2026-05-07 03:20 | 34.99287 | -108.48064 | 35983 ft | 447 kts | 266° |
| 2026-05-07 03:21 | 34.99004 | -108.55666 | 35987 ft | 449 kts | 266° |
| 2026-05-07 03:21 | 34.98717 | -108.63285 | 35984 ft | 450 kts | 266° |
| 2026-05-07 03:22 | 34.98424 | -108.70904 | 35987 ft | 450 kts | 266° |
| 2026-05-07 03:22 | 34.98126 | -108.78527 | 35969 ft | 450 kts | 266° |
| 2026-05-07 03:23 | 34.97813 | -108.86179 | 35970 ft | 453 kts | 266° |
| 2026-05-07 03:23 | 34.97477 | -108.93854 | 35971 ft | 453 kts | 266° |
| 2026-05-07 03:24 | 34.97153 | -109.01485 | 35962 ft | 453 kts | 266° |
| 2026-05-07 03:24 | 34.96831 | -109.09177 | 35961 ft | 456 kts | 267° |
| 2026-05-07 03:25 | 34.96016 | -109.16894 | 35956 ft | 464 kts | 253° |
| 2026-05-07 03:25 | 34.93579 | -109.24226 | 35954 ft | 467 kts | 245° |
| 2026-05-07 03:26 | 34.90817 | -109.31298 | 35953 ft | 465 kts | 245° |
| 2026-05-07 03:26 | 34.88115 | -109.38452 | 35952 ft | 464 kts | 246° |
| 2026-05-07 03:27 | 34.85484 | -109.45628 | 35955 ft | 463 kts | 246° |
| 2026-05-07 03:27 | 34.82860 | -109.52833 | 35964 ft | 467 kts | 246° |
| 2026-05-07 03:28 | 34.80238 | -109.60012 | 35952 ft | 450 kts | 246° |
| 2026-05-07 03:28 | 34.78986 | -109.63427 | 35951 ft | 438 kts | 246° |
| 2026-05-07 03:28 | 34.77742 | -109.66793 | 35953 ft | 436 kts | 246° |
| 2026-05-07 03:29 | 34.75222 | -109.73592 | 35953 ft | 448 kts | 246° |
| 2026-05-07 03:29 | 34.72618 | -109.80618 | 35951 ft | 462 kts | 246° |
| 2026-05-07 03:30 | 34.69964 | -109.87762 | 35953 ft | 470 kts | 246° |
| 2026-05-07 03:30 | 34.67258 | -109.95027 | 35967 ft | 472 kts | 246° |
| 2026-05-07 03:31 | 34.64548 | -110.02304 | 35964 ft | 473 kts | 246° |
| 2026-05-07 03:31 | 34.61831 | -110.09588 | 35971 ft | 473 kts | 246° |
| 2026-05-07 03:32 | 34.59105 | -110.16881 | 35972 ft | 475 kts | 245° |
| 2026-05-07 03:32 | 34.56352 | -110.24228 | 35154 ft | 482 kts | 245° |
| 2026-05-07 03:32 | 34.54974 | -110.27897 | 34376 ft | 486 kts | 245° |
| 2026-05-07 03:33 | 34.53565 | -110.31646 | 33676 ft | 491 kts | 245° |
| 2026-05-07 03:33 | 34.52143 | -110.35425 | 33294 ft | 489 kts | 245° |
| 2026-05-07 03:33 | 34.50756 | -110.39108 | 33111 ft | 472 kts | 245° |
| 2026-05-07 03:33 | 34.49396 | -110.42712 | 32985 ft | 468 kts | 245° |
| 2026-05-07 03:34 | 34.48051 | -110.46265 | 32948 ft | 462 kts | 245° |
| 2026-05-07 03:34 | 34.45374 | -110.53340 | 32826 ft | 461 kts | 245° |
| 2026-05-07 03:35 | 34.42720 | -110.60363 | 32446 ft | 464 kts | 245° |
| 2026-05-07 03:35 | 34.41379 | -110.63910 | 31848 ft | 460 kts | 245° |
| 2026-05-07 03:35 | 34.40048 | -110.67429 | 31214 ft | 460 kts | 245° |
| 2026-05-07 03:35 | 34.38714 | -110.70953 | 30614 ft | 459 kts | 245° |
| 2026-05-07 03:36 | 34.37384 | -110.74461 | 30213 ft | 458 kts | 245° |
| 2026-05-07 03:36 | 34.36026 | -110.77898 | 30009 ft | 458 kts | 240° |
| 2026-05-07 03:36 | 34.34244 | -110.81094 | 29955 ft | 457 kts | 230° |
| 2026-05-07 03:37 | 34.29956 | -110.86818 | 29815 ft | 460 kts | 224° |
| 2026-05-07 03:37 | 34.27724 | -110.89581 | 29532 ft | 460 kts | 224° |
| 2026-05-07 03:37 | 34.25508 | -110.92339 | 28776 ft | 453 kts | 224° |
| 2026-05-07 03:37 | 34.23364 | -110.95051 | 28099 ft | 438 kts | 225° |
| 2026-05-07 03:38 | 34.21300 | -110.97695 | 27465 ft | 429 kts | 225° |
| 2026-05-07 03:38 | 34.19273 | -111.00311 | 26834 ft | 423 kts | 225° |
| 2026-05-07 03:38 | 34.17279 | -111.02891 | 26216 ft | 417 kts | 226° |
| 2026-05-07 03:38 | 34.15311 | -111.05439 | 25612 ft | 412 kts | 226° |
| 2026-05-07 03:39 | 34.13373 | -111.07947 | 25040 ft | 405 kts | 226° |
| 2026-05-07 03:39 | 34.11480 | -111.10390 | 24444 ft | 402 kts | 226° |
| 2026-05-07 03:39 | 34.09583 | -111.12835 | 23767 ft | 395 kts | 226° |
| 2026-05-07 03:39 | 34.07725 | -111.15230 | 23024 ft | 390 kts | 226° |
| 2026-05-07 03:40 | 34.05867 | -111.17625 | 22318 ft | 390 kts | 226° |
| 2026-05-07 03:40 | 34.04013 | -111.20013 | 21645 ft | 389 kts | 226° |
| 2026-05-07 03:40 | 34.02170 | -111.22387 | 20980 ft | 387 kts | 226° |
| 2026-05-07 03:40 | 34.00336 | -111.24748 | 20328 ft | 385 kts | 226° |
| 2026-05-07 03:41 | 33.98514 | -111.27092 | 19679 ft | 384 kts | 226° |
| 2026-05-07 03:41 | 33.96693 | -111.29432 | 19033 ft | 382 kts | 226° |
| 2026-05-07 03:41 | 33.94878 | -111.31764 | 18384 ft | 379 kts | 226° |
| 2026-05-07 03:41 | 33.93104 | -111.34043 | 17690 ft | 369 kts | 226° |
| 2026-05-07 03:42 | 33.91365 | -111.36275 | 17037 ft | 362 kts | 226° |
| 2026-05-07 03:42 | 33.89657 | -111.38465 | 16410 ft | 355 kts | 226° |
| 2026-05-07 03:42 | 33.87888 | -111.40437 | 15915 ft | 341 kts | 219° |
| 2026-05-07 03:42 | 33.86004 | -111.42185 | 15289 ft | 337 kts | 216° |
| 2026-05-07 03:43 | 33.84137 | -111.43805 | 14716 ft | 334 kts | 215° |
| 2026-05-07 03:43 | 33.82257 | -111.45408 | 14118 ft | 329 kts | 214° |
| 2026-05-07 03:43 | 33.80395 | -111.46995 | 13527 ft | 326 kts | 214° |
| 2026-05-07 03:43 | 33.78554 | -111.48566 | 12933 ft | 323 kts | 215° |
| 2026-05-07 03:44 | 33.76737 | -111.50119 | 12371 ft | 320 kts | 215° |
| 2026-05-07 03:44 | 33.74931 | -111.51665 | 11828 ft | 317 kts | 215° |
| 2026-05-07 03:44 | 33.73140 | -111.53200 | 11284 ft | 315 kts | 215° |
| 2026-05-07 03:44 | 33.71368 | -111.54720 | 10747 ft | 312 kts | 215° |
| 2026-05-07 03:45 | 33.69614 | -111.56225 | 10399 ft | 303 kts | 215° |
| 2026-05-07 03:45 | 33.67975 | -111.57632 | 10269 ft | 276 kts | 215° |
| 2026-05-07 03:45 | 33.66456 | -111.58938 | 10174 ft | 263 kts | 216° |
| 2026-05-07 03:45 | 33.65004 | -111.60184 | 10050 ft | 247 kts | 215° |
| 2026-05-07 03:46 | 33.63645 | -111.61334 | 9942 ft | 233 kts | 215° |
| 2026-05-07 03:46 | 33.62318 | -111.62450 | 9897 ft | 231 kts | 215° |
| 2026-05-07 03:46 | 33.61000 | -111.63555 | 9492 ft | 230 kts | 215° |
| 2026-05-07 03:46 | 33.59707 | -111.64638 | 9017 ft | 223 kts | 215° |
| 2026-05-07 03:47 | 33.58460 | -111.65682 | 8581 ft | 215 kts | 216° |
| 2026-05-07 03:47 | 33.57249 | -111.66697 | 8178 ft | 210 kts | 216° |
| 2026-05-07 03:47 | 33.56059 | -111.67695 | 7794 ft | 207 kts | 216° |
| 2026-05-07 03:47 | 33.54889 | -111.68686 | 7409 ft | 204 kts | 217° |
| 2026-05-07 03:48 | 33.53741 | -111.69660 | 7059 ft | 200 kts | 217° |
| 2026-05-07 03:48 | 33.52609 | -111.70621 | 6702 ft | 198 kts | 216° |
| 2026-05-07 03:48 | 33.51484 | -111.71575 | 6345 ft | 198 kts | 216° |
| 2026-05-07 03:48 | 33.50377 | -111.72515 | 5989 ft | 196 kts | 216° |
| 2026-05-07 03:49 | 33.49272 | -111.73451 | 5638 ft | 194 kts | 216° |
| 2026-05-07 03:49 | 33.48177 | -111.74379 | 5295 ft | 192 kts | 217° |
| 2026-05-07 03:49 | 33.47125 | -111.75352 | 4967 ft | 190 kts | 229° |
| 2026-05-07 03:49 | 33.46375 | -111.76629 | 4699 ft | 187 kts | 240° |
| 2026-05-07 03:50 | 33.45708 | -111.77967 | 4383 ft | 186 kts | 240° |
| 2026-05-07 03:50 | 33.45052 | -111.79298 | 4103 ft | 184 kts | 240° |
| 2026-05-07 03:50 | 33.44428 | -111.80634 | 4012 ft | 184 kts | 249° |
| 2026-05-07 03:50 | 33.44179 | -111.82131 | 3869 ft | 183 kts | 266° |
| 2026-05-07 03:51 | 33.44088 | -111.83642 | 3625 ft | 181 kts | 267° |
| 2026-05-07 03:51 | 33.44047 | -111.85142 | 3402 ft | 180 kts | 270° |
| 2026-05-07 03:51 | 33.44050 | -111.86593 | 3149 ft | 171 kts | 270° |
| 2026-05-07 03:51 | 33.44054 | -111.87970 | 2894 ft | 157 kts | 270° |
| 2026-05-07 03:52 | 33.44057 | -111.89278 | 2713 ft | 156 kts | 270° |
| 2026-05-07 03:52 | 33.44059 | -111.90558 | 2528 ft | 156 kts | 270° |
| 2026-05-07 03:52 | 33.44062 | -111.91849 | 2323 ft | 155 kts | 270° |
| 2026-05-07 03:52 | 33.44065 | -111.93143 | 2140 ft | 156 kts | 271° |
| 2026-05-07 03:53 | 33.44069 | -111.94443 | 1961 ft | 156 kts | 269° |
| 2026-05-07 03:53 | 33.44071 | -111.95745 | 1731 ft | 157 kts | 270° |
| 2026-05-07 03:53 | 33.44074 | -111.97054 | 1546 ft | 156 kts | 268° |
| 2026-05-07 03:53 | 33.44071 | -111.98347 | 1310 ft | 156 kts | 269° |
| 2026-05-07 03:54 | 33.44078 | -111.99636 | 1150 ft | 151 kts | 268° |
| 2026-05-07 03:54 | 33.44079 | -112.00770 | 1141 ft | 122 kts | 270° |
| 2026-05-07 03:54 | 33.44083 | -112.01579 | 1139 ft | 72 kts | 270° |
| 2026-05-07 03:54 | 33.44073 | -112.01961 | 1136 ft | 25 kts | 255° |
| 2026-05-07 03:55 | 33.43995 | -112.02035 | 1141 ft | 8 kts | 186° |
| 2026-05-07 03:55 | 33.43976 | -112.02026 | 1141 ft | 1 kts | 133° |
| 2026-05-07 03:55 | 33.43972 | -112.01998 | 1140 ft | 8 kts | 95° |
| 2026-05-07 03:55 | 33.43970 | -112.01884 | 1137 ft | 19 kts | 90° |
| 2026-05-07 03:56 | 33.43971 | -112.01760 | 1137 ft | 26 kts | 89° |
| 2026-05-07 03:56 | 33.43975 | -112.01448 | 1141 ft | 29 kts | 89° |
| 2026-05-07 03:56 | 33.43976 | -112.01282 | 1141 ft | 31 kts | 89° |
| 2026-05-07 03:56 | 33.43976 | -112.00906 | 1141 ft | 37 kts | 90° |
| 2026-05-07 03:57 | 33.43975 | -112.00660 | 1141 ft | 17 kts | 90° |
| 2026-05-07 03:57 | 33.43974 | -112.00562 | 1141 ft | 16 kts | 91° |
| 2026-05-07 03:57 | 33.43899 | -112.00471 | 1141 ft | 18 kts | 166° |
| 2026-05-07 03:57 | 33.43761 | -112.00464 | 1140 ft | 22 kts | 180° |
| 2026-05-07 03:58 | 33.43591 | -112.00465 | 1140 ft | 27 kts | 180° |
| 2026-05-07 03:58 | 33.43402 | -112.00467 | 1141 ft | 22 kts | 180° |
| 2026-05-07 03:58 | 33.43291 | -112.00527 | 1142 ft | 16 kts | 252° |
| 2026-05-07 03:58 | 33.43284 | -112.00671 | 1141 ft | 20 kts | 269° |
| 2026-05-07 03:59 | 33.43287 | -112.00854 | 1141 ft | 24 kts | 270° |
| 2026-05-07 03:59 | 33.43286 | -112.01073 | 1141 ft | 28 kts | 270° |
| 2026-05-07 03:59 | 33.43286 | -112.01323 | 1141 ft | 32 kts | 270° |
| 2026-05-07 03:59 | 33.43285 | -112.01601 | 1140 ft | 35 kts | 270° |
| 2026-05-07 04:00 | 33.43283 | -112.01794 | 1139 ft | 12 kts | 269° |
| 2026-05-07 04:00 | 33.43296 | -112.01894 | 1140 ft | 6 kts | 294° |
| 2026-05-07 04:00 | 33.43316 | -112.01908 | 1141 ft | 3 kts | 343° |
| 2026-05-07 04:00 | 33.43337 | -112.01903 | 1140 ft | 5 kts | 17° |
| 2026-05-07 04:01 | 33.43384 | -112.01898 | 1142 ft | 4 kts | 359° |
| 2026-05-07 04:02 | 33.43363 | -112.01897 | 1140 ft | 0 kts | 180° |
| 2026-05-07 04:03 | 33.42620 | -112.01654 | 1142 ft | 0 kts | 90° |